Prince Rupert, British Columbia

5:02 AM PDT on May 30, 2017 (GMT -0700)
Prince Rupert - Public Works | | Change Station

Elev 100 ft 54.31 °N, 130.31 °W | Updated 2 minutes ago

Mostly Cloudy
Mostly Cloudy
46.8 °F
Feels Like 47 °F
N
0.0
Wind Variable Wind from SSE
Gusts 0.0 mph

Today
High -- | Low -- °F
--% Chance of Precip.
Yesterday
High -- | Low -- °F
Precip. -- in
Pressure 29.94 in
Visibility 9.0 miles
Clouds Few 15000 ft
Mostly Cloudy 17000 ft
Windchill 47 °F
Dew Point 44 °F
Humidity 91%
Rainfall 0.00 in
Snow Depth Not available.
5:15 AM 10:02 PM
Waxing Crescent, 29% visible
METAR CYPR 301100Z AUTO 05003KT 9SM FEW150 BKN170 09/08 A2993 RMK SLP137
Pressure 29.94 in
Visibility 9.0 miles
Clouds Few 15000 ft
Mostly Cloudy 17000 ft
Windchill 47 °F
Dew Point 44 °F
Humidity 91%
Rainfall 0.00 in
Snow Depth Not available.
5:15 AM 10:02 PM
Waxing Crescent, 29% visible
METAR CYPR 301100Z AUTO 05003KT 9SM FEW150 BKN170 09/08 A2993 RMK SLP137

Get Severe Weather Alerts

Thanks for signing up!

Be on the lookout for a verification email in your inbox.

You'll start receiving the daily forecast at 6 AM.

×

10-Day Weather Forecast

Almanac

Astronomy

May. 30, 2017 Rise Set
Actual Time
Civil Twilight
Nautical Twilight
Astronomical Twilight
Moon
Length of Visible Light
Length of Day
Tomorrow will be .
, % of the Moon is Illuminated

Today's Extremes

Country Highs Country Lows

Community

WunderPhotos

Category 6

Welcome to Category 6. This is the collective home for Weather Underground's featured writeups by Dr. Jeff Masters (right), Bob Henson (left), Chris Burt, and other regular contributors.

Nearby

Air Quality

  Air Quality AQ Index Pollutant
Not available.

Snow Depth

Station Depth Elevation

Earthquake Activity

City Distance Mag. Time & Date
Minimum magnitude displayed is 2.5.

Coastal Water Temperatures

Place Temperature

Stations

Nearby Weather Stations

Station Location Temp. Windchill Dew Point Humidity Wind Precip. Elev Updated Type
                   

Watches & Warnings

There are currently no watches in effect.